createdAt,value
2018-06-12T00:00:57.639Z,21.83
2018-06-12T00:03:39.040Z,22.23
2018-06-12T00:06:20.342Z,20.20
2018-06-12T00:09:01.606Z,21.20
2018-06-12T00:11:42.745Z,20.93
2018-06-12T00:14:24.900Z,19.63
2018-06-12T00:17:06.311Z,21.47
2018-06-12T00:19:47.596Z,21.50
2018-06-12T00:22:28.891Z,21.33
2018-06-12T00:25:10.057Z,22.27
2018-06-12T00:27:51.555Z,20.73
2018-06-12T00:30:32.838Z,21.70
2018-06-12T00:33:17.058Z,21.43
2018-06-12T00:35:58.810Z,21.73
2018-06-12T00:38:40.129Z,23.43
2018-06-12T00:41:21.467Z,22.53
2018-06-12T00:44:02.972Z,22.33
2018-06-12T00:46:44.368Z,21.53
2018-06-12T00:49:26.167Z,21.20
2018-06-12T00:52:07.564Z,21.00
2018-06-12T00:54:48.860Z,22.40
2018-06-12T00:57:30.195Z,21.70
2018-06-12T01:00:11.440Z,21.50
2018-06-12T01:02:53.334Z,20.27
2018-06-12T01:05:34.629Z,21.33
2018-06-12T01:08:15.907Z,21.43
2018-06-12T01:10:57.719Z,21.10
2018-06-12T01:13:38.995Z,21.13
2018-06-12T01:16:20.336Z,20.03
2018-06-12T01:19:01.747Z,21.70
2018-06-12T01:21:43.209Z,23.60
2018-06-12T01:24:26.286Z,21.63
2018-06-12T01:27:07.753Z,23.43
2018-06-12T01:29:49.156Z,21.73
2018-06-12T01:32:30.336Z,21.67
2018-06-12T01:35:11.355Z,21.63
2018-06-12T01:37:53.306Z,22.07
2018-06-12T01:40:34.880Z,21.47
2018-06-12T01:43:16.029Z,19.37
2018-06-12T01:45:57.617Z,19.97
2018-06-12T01:48:38.992Z,19.33
2018-06-12T01:51:20.312Z,21.33
2018-06-12T01:54:01.595Z,21.80
2018-06-12T01:56:42.998Z,22.27
2018-06-12T02:02:46.904Z,22.27
2018-06-12T02:05:28.680Z,22.37
2018-06-12T02:08:10.071Z,23.20
2018-06-12T02:10:52.214Z,23.37
2018-06-12T02:13:33.921Z,24.17
2018-06-12T02:16:15.377Z,24.63
2018-06-12T02:18:56.912Z,22.53
2018-06-12T02:21:38.394Z,21.37
2018-06-12T02:24:19.657Z,19.60
2018-06-12T02:27:01.232Z,19.37
2018-06-12T02:29:42.557Z,15.50
2018-06-12T02:32:24.135Z,16.33
2018-06-12T02:35:05.557Z,16.07
2018-06-12T02:37:46.964Z,17.73
2018-06-12T02:40:58.511Z,18.37
2018-06-12T02:43:41.174Z,19.37
2018-06-12T02:46:24.043Z,18.67
2018-06-12T02:49:05.204Z,19.63
2018-06-12T02:51:46.436Z,19.87
2018-06-12T02:54:27.900Z,19.87
2018-06-12T02:57:09.227Z,21.10
2018-06-12T02:59:51.604Z,19.47
2018-06-12T03:02:32.941Z,21.13
2018-06-12T03:05:14.197Z,21.17
2018-06-12T03:07:56.356Z,20.80
2018-06-12T03:10:38.016Z,19.77
2018-06-12T03:13:19.531Z,18.30
2018-06-12T03:16:01.038Z,16.77
2018-06-12T03:18:42.196Z,16.40
2018-06-12T03:21:24.025Z,17.60
2018-06-12T03:24:06.638Z,17.43
2018-06-12T03:26:47.834Z,15.73
2018-06-12T03:29:29.535Z,16.07
2018-06-12T03:32:10.864Z,16.23
2018-06-12T03:34:53.016Z,17.07
2018-06-12T03:37:34.540Z,17.00
2018-06-12T03:40:15.854Z,17.83
2018-06-12T03:42:57.228Z,18.13
2018-06-12T03:45:38.601Z,19.33
2018-06-12T03:48:21.275Z,18.43
2018-06-12T03:51:02.435Z,23.10
2018-06-12T03:53:44.051Z,23.10
2018-06-12T03:56:26.265Z,21.03
2018-06-12T03:59:07.831Z,19.87
2018-06-12T04:01:49.623Z,15.43
2018-06-12T04:04:32.024Z,15.30
2018-06-12T04:07:13.408Z,15.37
2018-06-12T04:09:54.992Z,16.00
2018-06-12T04:12:36.448Z,14.70
2018-06-12T04:15:17.783Z,13.73
2018-06-12T04:17:59.226Z,12.40
2018-06-12T04:20:53.271Z,11.33
2018-06-12T04:23:34.684Z,10.73
2018-06-12T04:26:16.025Z,10.33
2018-06-12T04:28:57.361Z,11.60
2018-06-12T04:31:39.016Z,10.33
2018-06-12T04:34:21.432Z,12.13
2018-06-12T04:37:02.847Z,10.03
2018-06-12T04:39:44.156Z,10.90
2018-06-12T04:42:25.701Z,10.83
2018-06-12T04:45:07.565Z,11.27
2018-06-12T04:47:48.897Z,10.60
2018-06-12T04:50:31.256Z,11.67
2018-06-12T04:53:12.627Z,10.47
2018-06-12T04:55:54.199Z,9.27
2018-06-12T04:58:35.510Z,8.60
2018-06-12T05:01:16.782Z,7.00
2018-06-12T05:03:58.377Z,6.87
2018-06-12T05:06:40.194Z,6.03
2018-06-12T05:09:22.328Z,5.97
2018-06-12T05:12:04.708Z,6.77
2018-06-12T05:14:46.409Z,4.87
2018-06-12T05:17:27.818Z,4.33
2018-06-12T05:20:09.213Z,4.30
2018-06-12T05:22:51.416Z,5.70
2018-06-12T05:25:32.848Z,6.73
2018-06-12T05:28:14.164Z,8.40
2018-06-12T05:30:55.809Z,9.43
2018-06-12T05:33:36.892Z,7.47
2018-06-12T05:36:18.192Z,6.20
2018-06-12T05:38:59.463Z,6.00
2018-06-12T05:41:41.909Z,4.77
2018-06-12T05:44:24.145Z,5.17
2018-06-12T05:47:05.720Z,5.83
2018-06-12T05:49:47.170Z,5.70
2018-06-12T05:52:28.490Z,6.10
2018-06-12T05:55:09.788Z,6.33
2018-06-12T05:57:51.361Z,5.57
2018-06-12T06:00:33.669Z,6.27
2018-06-12T06:03:15.171Z,6.47
2018-06-12T06:05:56.845Z,6.67
2018-06-12T06:08:38.374Z,6.67
2018-06-12T06:11:21.401Z,8.03
2018-06-12T06:14:03.545Z,7.27
2018-06-12T06:16:44.812Z,6.80
2018-06-12T06:19:26.479Z,6.43
2018-06-12T06:22:07.881Z,6.70
2018-06-12T06:24:49.265Z,6.87
2018-06-12T06:27:30.893Z,5.33
2018-06-12T06:30:12.212Z,6.63
2018-06-12T06:32:54.144Z,7.63
2018-06-12T06:35:35.445Z,7.03
2018-06-12T06:38:16.741Z,5.90
2018-06-12T06:40:59.139Z,5.30
2018-06-12T06:43:40.479Z,5.83
2018-06-12T06:46:22.231Z,5.87
2018-06-12T06:49:03.771Z,6.20
2018-06-12T06:51:45.137Z,5.87
2018-06-12T06:54:26.991Z,5.83
2018-06-12T06:57:08.411Z,5.67
2018-06-12T06:59:49.876Z,5.30
2018-06-12T07:02:31.536Z,5.60
2018-06-12T07:05:13.052Z,5.83
2018-06-12T07:07:55.163Z,5.60
2018-06-12T07:10:37.147Z,5.33
2018-06-12T07:13:18.480Z,6.67
2018-06-12T07:15:59.938Z,6.47
2018-06-12T07:18:42.363Z,7.00
2018-06-12T07:21:25.335Z,14.50
2018-06-12T07:24:06.669Z,14.43
2018-06-12T07:26:48.093Z,16.07
2018-06-12T07:29:29.494Z,17.43
2018-06-12T07:32:10.876Z,18.00
2018-06-12T07:34:52.908Z,18.67
2018-06-12T07:37:34.257Z,18.83
2018-06-12T07:40:15.701Z,18.97
2018-06-12T07:42:57.111Z,18.00
2018-06-12T07:45:38.539Z,16.80
2018-06-12T07:48:20.009Z,17.57
2018-06-12T07:51:01.328Z,16.80
2018-06-12T07:53:42.673Z,15.63
2018-06-12T07:56:26.646Z,16.33
2018-06-12T07:59:07.996Z,18.33
2018-06-12T08:01:49.501Z,17.97
2018-06-12T08:04:31.904Z,15.37
2018-06-12T08:07:13.249Z,15.80
2018-06-12T08:09:55.067Z,15.90
2018-06-12T08:12:36.546Z,16.50
2018-06-12T08:15:18.654Z,16.13
2018-06-12T08:18:00.092Z,15.03
2018-06-12T08:20:41.380Z,13.57
2018-06-12T08:23:24.340Z,13.43
2018-06-12T08:26:23.413Z,10.60
2018-06-12T08:29:05.664Z,10.17
2018-06-12T08:31:47.060Z,10.47
2018-06-12T08:34:28.440Z,11.60
2018-06-12T08:37:09.725Z,12.13
2018-06-12T08:39:51.716Z,12.97
2018-06-12T08:42:32.904Z,13.47
2018-06-12T08:45:14.101Z,16.00
2018-06-12T08:47:56.029Z,13.97
2018-06-12T08:50:37.487Z,15.10
2018-06-12T08:53:18.924Z,14.20
2018-06-12T08:56:00.343Z,16.07
2018-06-12T08:58:41.660Z,17.37
2018-06-12T09:01:24.752Z,19.47
2018-06-12T09:04:06.157Z,21.87
2018-06-12T09:06:47.599Z,21.87
2018-06-12T09:09:29.172Z,23.57
2018-06-12T09:12:10.221Z,23.93
2018-06-12T09:14:51.818Z,24.70
2018-06-12T09:17:37.684Z,27.03
2018-06-12T09:20:25.578Z,26.13
2018-06-12T09:23:06.944Z,28.43
2018-06-12T09:25:49.076Z,32.00
2018-06-12T09:28:31.259Z,31.37
2018-06-12T09:31:12.770Z,34.20
2018-06-12T09:33:54.384Z,36.80
2018-06-12T09:36:36.398Z,34.83
2018-06-12T09:39:17.938Z,34.27
2018-06-12T09:41:59.426Z,36.80
2018-06-12T09:44:40.781Z,38.07
2018-06-12T09:47:22.605Z,36.47
2018-06-12T09:50:04.040Z,38.37
2018-06-12T09:52:45.343Z,41.77
2018-06-12T09:55:27.468Z,43.60
2018-06-12T09:58:08.934Z,40.47
2018-06-12T10:00:55.629Z,31.07
2018-06-12T10:03:37.092Z,32.20
2018-06-12T10:06:18.382Z,30.60
2018-06-12T10:09:00.544Z,31.90
2018-06-12T10:11:41.832Z,27.67
2018-06-12T10:14:24.443Z,26.73
2018-06-12T10:17:05.944Z,20.07
2018-06-12T10:19:47.420Z,14.73
2018-06-12T10:22:28.925Z,11.60
2018-06-12T10:25:10.256Z,12.60
2018-06-12T10:27:52.473Z,14.17
2018-06-12T10:30:35.365Z,14.27
2018-06-12T10:33:16.771Z,16.73
2018-06-12T10:35:58.166Z,16.23
2018-06-12T10:38:39.561Z,17.43
2018-06-12T10:41:21.677Z,17.30
2018-06-12T10:44:03.868Z,17.57
2018-06-12T10:46:45.202Z,19.50
2018-06-12T10:49:27.483Z,19.57
2018-06-12T10:52:09.464Z,19.67
2018-06-12T10:54:51.689Z,19.60
2018-06-12T10:57:33.233Z,18.43
2018-06-12T11:00:14.539Z,20.80
2018-06-12T11:02:56.530Z,20.70
2018-06-12T11:05:38.019Z,19.50
2018-06-12T11:08:19.444Z,21.53
2018-06-12T11:11:01.242Z,20.13
2018-06-12T11:13:42.667Z,22.33
2018-06-12T11:16:25.960Z,19.80
2018-06-12T11:19:07.172Z,20.20
2018-06-12T11:21:48.513Z,16.93
2018-06-12T11:24:29.938Z,17.13
2018-06-12T11:27:11.088Z,19.53
2018-06-12T11:29:53.332Z,16.47
2018-06-12T11:32:34.844Z,16.70
2018-06-12T11:35:16.192Z,14.90
2018-06-12T11:37:58.465Z,17.43
2018-06-12T11:40:39.770Z,14.90
2018-06-12T11:43:21.896Z,15.63
2018-06-12T11:46:03.590Z,16.00
2018-06-12T11:48:44.911Z,17.27
2018-06-12T11:51:27.883Z,16.03
2018-06-12T11:54:10.041Z,16.30
2018-06-12T11:56:51.797Z,16.77
2018-06-12T11:59:33.308Z,16.90
2018-06-12T12:02:14.671Z,16.33
2018-06-12T12:04:56.138Z,16.83
2018-06-12T12:07:37.385Z,17.83
2018-06-12T12:10:21.807Z,17.07
2018-06-12T12:13:04.092Z,16.60
2018-06-12T12:15:45.873Z,17.17
2018-06-12T12:18:27.388Z,15.03
2018-06-12T12:21:09.384Z,16.40
2018-06-12T12:23:50.701Z,17.20
2018-06-12T12:26:32.809Z,17.50
2018-06-12T12:29:14.222Z,17.97
2018-06-12T12:31:56.123Z,17.83
2018-06-12T12:34:37.515Z,19.10
2018-06-12T12:37:19.034Z,16.70
2018-06-12T12:40:01.544Z,18.13
2018-06-12T12:42:43.012Z,18.53
2018-06-12T12:45:24.683Z,20.00
2018-06-12T12:48:06.040Z,19.00
2018-06-12T12:50:47.569Z,18.77
2018-06-12T12:53:28.980Z,18.97
2018-06-12T12:56:10.661Z,18.03
2018-06-12T12:58:53.123Z,19.20
2018-06-12T13:01:34.650Z,19.37
2018-06-12T13:04:16.096Z,19.50
2018-06-12T13:06:57.535Z,20.87
2018-06-12T13:09:39.034Z,20.67
2018-06-12T13:12:20.961Z,20.97
2018-06-12T13:15:02.328Z,20.73
2018-06-12T13:17:43.873Z,19.97
2018-06-12T13:20:25.631Z,19.60
2018-06-12T13:23:07.387Z,20.33
2018-06-12T13:25:48.897Z,19.57
2018-06-12T13:28:30.275Z,20.97
2018-06-12T13:31:11.629Z,19.97
2018-06-12T13:33:55.638Z,21.50
2018-06-12T13:36:37.660Z,22.83
2018-06-12T13:39:19.014Z,20.23
2018-06-12T13:42:00.901Z,21.37
2018-06-12T13:44:43.223Z,22.13
2018-06-12T13:47:25.124Z,20.53
2018-06-12T13:50:06.483Z,22.00
2018-06-12T13:52:47.812Z,21.37
2018-06-12T13:55:29.256Z,21.90
2018-06-12T13:58:10.677Z,22.53
2018-06-12T14:00:53.536Z,21.93
2018-06-12T14:03:37.845Z,20.10
2018-06-12T14:06:19.146Z,19.97
2018-06-12T14:09:00.499Z,17.87
2018-06-12T14:11:42.071Z,18.83
2018-06-12T14:14:24.926Z,19.30
2018-06-12T14:17:06.315Z,17.33
2018-06-12T14:19:47.503Z,16.00
2018-06-12T14:22:28.833Z,16.80
2018-06-12T14:25:10.646Z,15.97
2018-06-12T14:27:52.584Z,16.33
2018-06-12T14:30:33.877Z,17.30
2018-06-12T14:33:15.227Z,15.50
2018-06-12T14:35:57.091Z,16.67
2018-06-12T14:38:38.827Z,15.10
2018-06-12T14:41:20.168Z,15.27
2018-06-12T14:44:02.674Z,15.23
2018-06-12T14:46:44.576Z,15.13
2018-06-12T14:49:28.043Z,14.93
2018-06-12T14:52:09.409Z,14.27
2018-06-12T14:54:51.064Z,14.17
2018-06-12T14:57:33.504Z,12.73
2018-06-12T15:00:15.092Z,14.07
2018-06-12T15:02:57.827Z,13.83
2018-06-12T15:05:39.299Z,14.77
2018-06-12T15:08:20.883Z,14.77
2018-06-12T15:11:02.520Z,13.07
2018-06-12T15:13:43.951Z,13.23
2018-06-12T15:16:29.010Z,13.93
2018-06-12T15:19:10.439Z,14.53
2018-06-12T15:21:51.828Z,15.07
2018-06-12T15:24:33.252Z,15.47
2018-06-12T15:27:15.381Z,14.30
2018-06-12T15:29:57.400Z,15.20
2018-06-12T15:32:38.985Z,15.13
2018-06-12T15:35:20.596Z,14.43
2018-06-12T15:38:02.772Z,14.03
2018-06-12T15:40:44.790Z,13.40
2018-06-12T15:43:26.611Z,12.40
2018-06-12T15:46:07.876Z,13.33
2018-06-12T15:48:49.279Z,13.73
2018-06-12T15:51:31.036Z,12.00
2018-06-12T15:54:12.389Z,12.00
2018-06-12T15:56:54.615Z,16.60
2018-06-12T15:59:36.694Z,12.00
2018-06-12T16:02:18.172Z,12.67
2018-06-12T16:04:59.893Z,11.33
2018-06-12T16:07:41.360Z,11.53
2018-06-12T16:10:24.247Z,11.43
2018-06-12T16:13:06.727Z,12.57
2018-06-12T16:15:48.133Z,12.07
2018-06-12T16:18:29.503Z,13.70
2018-06-12T16:21:12.736Z,13.23
2018-06-12T16:23:55.835Z,13.93
2018-06-12T16:26:37.728Z,14.03
2018-06-12T16:29:19.184Z,13.60
2018-06-12T16:32:01.048Z,11.90
2018-06-12T16:34:42.589Z,11.73
2018-06-12T16:37:24.654Z,12.03
2018-06-12T16:40:06.119Z,11.77
2018-06-12T16:42:47.885Z,13.17
2018-06-12T16:45:29.336Z,13.30
2018-06-12T16:48:10.717Z,13.50
2018-06-12T16:50:53.068Z,12.63
2018-06-12T16:53:34.911Z,12.83
2018-06-12T16:56:16.228Z,12.77
2018-06-12T16:58:58.096Z,13.30
2018-06-12T17:01:39.469Z,12.83
2018-06-12T17:04:20.967Z,12.63
2018-06-12T17:07:04.347Z,12.53
2018-06-12T17:09:46.143Z,12.50
2018-06-12T17:12:28.573Z,13.27
2018-06-12T17:15:09.795Z,12.60
2018-06-12T17:17:51.140Z,12.90
2018-06-12T17:20:32.948Z,13.20
2018-06-12T17:23:14.181Z,13.90
2018-06-12T17:25:55.892Z,13.40
2018-06-12T17:28:37.392Z,13.70
2018-06-12T17:31:18.919Z,13.27
2018-06-12T17:34:02.453Z,12.73
2018-06-12T17:36:44.956Z,11.90
2018-06-12T17:39:26.929Z,13.07
2018-06-12T17:42:10.179Z,12.23
2018-06-12T17:44:55.462Z,11.17
2018-06-12T17:47:36.795Z,12.37
2018-06-12T17:50:19.388Z,11.80
2018-06-12T17:53:00.820Z,12.63
2018-06-12T17:55:42.233Z,12.50
2018-06-12T17:58:24.545Z,12.53
2018-06-12T18:01:05.892Z,15.00
2018-06-12T18:03:47.706Z,15.33
2018-06-12T18:06:29.288Z,13.80
2018-06-12T18:09:10.685Z,15.13
2018-06-12T18:11:52.205Z,14.63
2018-06-12T18:14:33.803Z,15.07
2018-06-12T18:17:15.244Z,14.03
2018-06-12T18:20:03.237Z,15.47
2018-06-12T18:22:44.816Z,16.60
2018-06-12T18:25:27.445Z,14.90
2018-06-12T18:28:08.905Z,15.73
2018-06-12T18:30:50.399Z,16.63
2018-06-12T18:33:31.822Z,17.00
2018-06-12T18:36:13.265Z,15.37
2018-06-12T18:38:55.481Z,15.90
2018-06-12T18:41:38.453Z,16.00
2018-06-12T18:44:20.740Z,15.80
2018-06-12T18:47:02.250Z,15.87
2018-06-12T18:49:43.681Z,15.70
2018-06-12T18:52:25.691Z,15.83
2018-06-12T18:55:07.135Z,17.23
2018-06-12T18:57:48.659Z,16.97
2018-06-12T19:00:29.960Z,16.83
2018-06-12T19:03:11.685Z,16.23
2018-06-12T19:05:54.131Z,16.40
2018-06-12T19:08:35.540Z,16.50
2018-06-12T19:11:16.986Z,16.53
2018-06-12T19:13:59.071Z,17.87
2018-06-12T19:16:41.240Z,14.77
2018-06-12T19:19:22.592Z,14.53
2018-06-12T19:22:04.878Z,17.50
2018-06-12T19:24:46.860Z,16.77
2018-06-12T19:27:29.195Z,17.10
2018-06-12T19:30:15.655Z,18.03
2018-06-12T19:32:58.620Z,17.77
2018-06-12T19:35:40.180Z,17.23
2018-06-12T19:38:21.812Z,15.93
2018-06-12T19:41:04.019Z,17.33
2018-06-12T19:43:45.394Z,18.17
2018-06-12T19:46:28.299Z,19.70
2018-06-12T19:49:09.733Z,21.40
2018-06-12T19:51:51.196Z,19.20
2018-06-12T19:54:32.579Z,19.13
2018-06-12T19:57:14.061Z,19.57
2018-06-12T19:59:59.035Z,18.17
2018-06-12T20:02:40.999Z,18.27
2018-06-12T20:05:22.880Z,18.70
2018-06-12T20:08:04.564Z,20.27
2018-06-12T20:10:45.915Z,19.30
2018-06-12T20:13:27.857Z,20.30
2018-06-12T20:16:09.453Z,20.93
2018-06-12T20:18:51.306Z,19.87
2018-06-12T20:21:32.720Z,19.30
2018-06-12T20:24:14.363Z,19.93
2018-06-12T20:26:56.358Z,18.10
2018-06-12T20:29:37.727Z,19.03
2018-06-12T20:32:19.175Z,20.03
2018-06-12T20:35:00.561Z,18.40
2018-06-12T20:37:43.003Z,18.77
2018-06-12T20:40:27.446Z,20.63
2018-06-12T20:43:09.559Z,19.00
2018-06-12T20:45:51.095Z,18.87
2018-06-12T20:48:32.620Z,19.67
2018-06-12T20:51:14.245Z,18.30
2018-06-12T20:53:56.264Z,19.77
2018-06-12T20:56:37.526Z,19.27
2018-06-12T20:59:18.940Z,19.63
2018-06-12T21:02:00.364Z,20.63
2018-06-12T21:04:41.675Z,19.43
2018-06-12T21:07:23.192Z,18.07
2018-06-12T21:10:05.249Z,19.77
2018-06-12T21:12:46.734Z,21.97
2018-06-12T21:15:29.435Z,19.10
2018-06-12T21:18:10.745Z,20.60
2018-06-12T21:20:52.220Z,19.40
2018-06-12T21:23:33.562Z,19.77
2018-06-12T21:26:14.934Z,19.20
2018-06-12T21:28:57.092Z,17.73
2018-06-12T21:31:38.911Z,18.77
2018-06-12T21:34:20.918Z,18.30
2018-06-12T21:37:02.694Z,18.20
2018-06-12T21:39:44.228Z,19.10
2018-06-12T21:42:28.744Z,18.57
2018-06-12T21:45:10.083Z,18.87
2018-06-12T21:47:51.528Z,18.47
2018-06-12T21:50:32.849Z,19.23
2018-06-12T21:53:14.187Z,20.03
2018-06-12T21:55:56.044Z,20.77
2018-06-12T21:58:44.312Z,21.23
2018-06-12T22:01:28.180Z,21.63
2018-06-12T22:04:09.669Z,21.07
2018-06-12T22:06:50.928Z,22.47
2018-06-12T22:09:32.274Z,22.57
2018-06-12T22:12:13.627Z,21.67
2018-06-12T22:14:55.142Z,23.60
2018-06-12T22:17:49.653Z,21.83
2018-06-12T22:20:30.985Z,21.97
2018-06-12T22:23:12.364Z,22.43
2018-06-12T22:25:53.669Z,21.60
2018-06-12T22:28:35.251Z,22.10
2018-06-12T22:31:16.621Z,21.90
2018-06-12T22:33:58.073Z,22.00
2018-06-12T22:36:39.428Z,20.83
2018-06-12T22:39:20.752Z,21.47
2018-06-12T22:42:02.062Z,21.40
2018-06-12T22:44:43.416Z,21.90
2018-06-12T22:47:26.121Z,21.47
2018-06-12T22:50:08.685Z,22.43
2018-06-12T22:52:50.723Z,21.60
2018-06-12T22:55:31.926Z,22.13
2018-06-12T22:58:13.319Z,22.53
2018-06-12T23:00:55.011Z,21.93
2018-06-12T23:03:36.475Z,22.23
2018-06-12T23:06:17.819Z,21.47
2018-06-12T23:09:00.434Z,21.53
2018-06-12T23:11:41.871Z,23.30
2018-06-12T23:14:25.360Z,22.50
2018-06-12T23:17:06.872Z,23.33
2018-06-12T23:20:05.327Z,23.70
2018-06-12T23:22:47.079Z,23.77
2018-06-12T23:25:29.569Z,23.33
2018-06-12T23:28:11.142Z,24.27
2018-06-12T23:30:52.614Z,24.80
2018-06-12T23:33:35.077Z,25.00
2018-06-12T23:36:16.532Z,24.03
2018-06-12T23:38:57.969Z,25.20
2018-06-12T23:41:39.451Z,25.03
2018-06-12T23:44:20.666Z,25.77
2018-06-12T23:47:02.076Z,28.30
2018-06-12T23:49:44.000Z,27.50
2018-06-12T23:52:26.117Z,27.77
2018-06-12T23:55:08.604Z,28.90
2018-06-12T23:57:50.204Z,29.57
